createdAt,value
2022-10-18T00:00:28.873Z,12.30
2022-10-18T00:03:38.153Z,12.30
2022-10-18T00:06:48.232Z,12.30
2022-10-18T00:09:56.693Z,12.30
2022-10-18T00:13:05.197Z,12.40
2022-10-18T00:16:15.390Z,12.40
2022-10-18T00:19:26.035Z,12.50
2022-10-18T00:22:40.234Z,12.40
2022-10-18T00:25:48.668Z,12.50
2022-10-18T00:28:59.342Z,12.50
2022-10-18T00:32:07.924Z,12.40
2022-10-18T00:35:16.479Z,12.40
2022-10-18T00:38:26.423Z,12.40
2022-10-18T00:41:37.993Z,12.40
2022-10-18T00:45:07.580Z,12.30
2022-10-18T00:48:17.819Z,12.30
2022-10-18T00:51:30.117Z,12.30
2022-10-18T00:54:42.699Z,12.20
2022-10-18T00:57:52.241Z,12.20
2022-10-18T01:01:00.767Z,12.20
2022-10-18T01:04:09.425Z,12.20
2022-10-18T01:07:31.040Z,12.10
2022-10-18T01:10:46.472Z,12.00
2022-10-18T01:14:08.762Z,12.00
2022-10-18T01:17:20.423Z,12.00
2022-10-18T01:20:55.706Z,12.00
2022-10-18T01:24:46.130Z,11.90
2022-10-18T01:28:03.561Z,11.90
2022-10-18T01:31:16.298Z,11.90
2022-10-18T01:34:27.318Z,11.90
2022-10-18T01:37:37.085Z,11.90
2022-10-18T01:40:49.105Z,11.90
2022-10-18T01:44:00.953Z,11.90
2022-10-18T01:47:14.607Z,11.90
2022-10-18T01:50:31.147Z,11.90
2022-10-18T01:53:39.620Z,11.90
2022-10-18T01:56:54.940Z,12.00
2022-10-18T02:00:07.344Z,12.00
2022-10-18T02:03:28.224Z,12.00
2022-10-18T02:06:41.702Z,12.00
2022-10-18T02:09:56.733Z,12.00
2022-10-18T02:13:05.267Z,12.00
2022-10-18T02:16:18.212Z,12.00
2022-10-18T02:19:33.927Z,12.00
2022-10-18T02:22:46.088Z,12.10
2022-10-18T02:25:55.274Z,12.10
2022-10-18T02:29:03.923Z,12.10
2022-10-18T02:32:18.443Z,12.10
2022-10-18T02:35:32.227Z,12.20
2022-10-18T02:38:42.673Z,12.20
2022-10-18T02:41:51.231Z,12.30
2022-10-18T02:44:59.669Z,12.30
2022-10-18T02:48:08.795Z,12.40
2022-10-18T02:51:18.675Z,12.40
2022-10-18T02:54:27.157Z,12.50
2022-10-18T02:57:36.312Z,12.50
2022-10-18T03:00:44.845Z,12.50
2022-10-18T03:03:53.343Z,12.50
2022-10-18T03:07:03.178Z,12.60
2022-10-18T03:10:11.685Z,12.60
2022-10-18T03:13:20.436Z,12.60
2022-10-18T03:16:28.865Z,12.60
2022-10-18T03:19:38.696Z,12.60
2022-10-18T03:22:48.512Z,12.60
2022-10-18T03:25:57.042Z,12.70
2022-10-18T03:29:06.448Z,12.70
2022-10-18T03:32:14.928Z,12.70
2022-10-18T03:35:23.456Z,12.70
2022-10-18T03:38:33.330Z,12.70
2022-10-18T03:41:41.787Z,12.70
2022-10-18T03:44:50.255Z,12.70
2022-10-18T03:47:58.738Z,12.70
2022-10-18T03:51:07.461Z,12.70
2022-10-18T03:54:17.314Z,12.70
2022-10-18T03:57:25.771Z,12.70
2022-10-18T04:00:34.335Z,12.70
2022-10-18T04:03:42.739Z,12.70
2022-10-18T04:06:51.163Z,12.70
2022-10-18T04:10:01.137Z,12.70
2022-10-18T04:13:10.035Z,12.70
2022-10-18T04:16:18.463Z,12.70
2022-10-18T04:19:27.807Z,12.70
2022-10-18T04:22:36.431Z,12.70
2022-10-18T04:25:46.254Z,12.70
2022-10-18T04:28:54.788Z,12.70
2022-10-18T04:32:03.363Z,12.70
2022-10-18T04:35:12.067Z,12.70
2022-10-18T04:38:21.185Z,12.70
2022-10-18T04:41:31.065Z,12.70
2022-10-18T04:44:39.713Z,12.70
2022-10-18T04:47:48.095Z,12.70
2022-10-18T04:50:56.608Z,12.70
2022-10-18T04:54:05.129Z,12.70
2022-10-18T04:57:14.995Z,12.70
2022-10-18T05:00:23.559Z,12.70
2022-10-18T05:03:31.958Z,12.70
2022-10-18T05:06:40.427Z,12.70
2022-10-18T05:09:48.838Z,12.60
2022-10-18T05:12:58.812Z,12.60
2022-10-18T05:16:08.151Z,12.60
2022-10-18T05:19:16.646Z,12.60
2022-10-18T05:22:25.082Z,12.60
2022-10-18T05:25:33.535Z,12.60
2022-10-18T05:28:43.483Z,12.50
2022-10-18T05:31:52.066Z,12.50
2022-10-18T05:35:00.566Z,12.50
2022-10-18T05:38:09.040Z,12.50
2022-10-18T05:41:17.532Z,12.50
2022-10-18T05:44:27.672Z,12.40
2022-10-18T05:50:49.478Z,12.30
2022-10-18T05:53:58.799Z,12.30
2022-10-18T05:57:07.244Z,12.40
2022-10-18T06:00:17.270Z,12.40
2022-10-18T06:03:25.904Z,12.50
2022-10-18T06:06:34.850Z,12.50
2022-10-18T06:09:43.334Z,12.50
2022-10-18T06:12:51.991Z,12.50
2022-10-18T06:16:01.855Z,12.60
2022-10-18T06:19:10.288Z,12.60
2022-10-18T06:22:18.753Z,12.60
2022-10-18T06:25:27.287Z,12.60
2022-10-18T06:28:36.993Z,12.60
2022-10-18T06:31:46.831Z,12.60
2022-10-18T06:34:55.245Z,12.60
2022-10-18T06:38:03.654Z,12.70
2022-10-18T06:41:12.336Z,12.70
2022-10-18T06:44:20.892Z,12.70
2022-10-18T06:47:30.735Z,12.70
2022-10-18T06:50:39.216Z,12.70
2022-10-18T06:53:59.566Z,12.70
2022-10-18T06:57:16.081Z,12.70
2022-10-18T07:00:24.588Z,12.80
2022-10-18T07:03:35.434Z,12.80
2022-10-18T07:06:43.858Z,12.70
2022-10-18T07:09:52.258Z,12.80
2022-10-18T07:13:20.019Z,12.80
2022-10-18T07:16:29.095Z,12.80
2022-10-18T07:19:38.987Z,12.80
2022-10-18T07:22:47.444Z,12.80
2022-10-18T07:25:55.841Z,12.80
2022-10-18T07:29:08.534Z,12.90
2022-10-18T07:32:17.030Z,12.90
2022-10-18T07:35:26.872Z,12.90
2022-10-18T07:38:35.428Z,12.90
2022-10-18T07:41:43.885Z,12.90
2022-10-18T07:44:52.294Z,12.90
2022-10-18T07:48:00.762Z,12.90
2022-10-18T07:51:11.202Z,13.00
2022-10-18T07:54:19.762Z,12.90
2022-10-18T07:57:28.207Z,12.90
2022-10-18T08:00:36.659Z,12.90
2022-10-18T08:03:45.136Z,13.00
2022-10-18T08:06:54.945Z,13.10
2022-10-18T08:10:03.423Z,13.10
2022-10-18T08:13:11.881Z,13.10
2022-10-18T08:16:23.143Z,13.20
2022-10-18T08:19:31.666Z,13.20
2022-10-18T08:22:41.491Z,13.20
2022-10-18T08:25:49.984Z,13.20
2022-10-18T08:29:17.718Z,13.20
2022-10-18T08:32:28.499Z,13.50
2022-10-18T08:35:36.964Z,14.10
2022-10-18T08:38:46.802Z,14.10
2022-10-18T08:42:24.755Z,17.10
2022-10-18T08:45:42.238Z,17.90
2022-10-18T08:48:53.415Z,18.80
2022-10-18T08:52:01.869Z,17.00
2022-10-18T08:55:18.420Z,15.90
2022-10-18T08:58:30.970Z,18.90
2022-10-18T09:01:50.075Z,20.20
2022-10-18T09:05:04.576Z,17.80
2022-10-18T09:08:48.794Z,16.10
2022-10-18T09:12:13.210Z,15.50
2022-10-18T09:15:32.735Z,14.90
2022-10-18T09:18:52.787Z,14.30
2022-10-18T09:22:09.689Z,14.00
2022-10-18T09:25:20.937Z,13.90
2022-10-18T09:28:38.996Z,13.80
2022-10-18T09:31:53.729Z,13.70
2022-10-18T09:35:06.980Z,13.40
2022-10-18T09:38:19.136Z,13.40
2022-10-18T09:41:31.465Z,13.30
2022-10-18T09:44:44.875Z,13.20
2022-10-18T09:48:04.389Z,13.20
2022-10-18T09:51:17.781Z,13.20
2022-10-18T09:54:33.084Z,13.40
2022-10-18T09:57:46.145Z,14.10
2022-10-18T10:00:57.259Z,14.80
2022-10-18T10:04:05.864Z,15.20
2022-10-18T10:07:17.885Z,15.40
2022-10-18T10:10:28.035Z,15.20
2022-10-18T10:13:36.474Z,15.20
2022-10-18T10:16:50.979Z,15.10
2022-10-18T10:20:03.750Z,14.80
2022-10-18T10:23:20.127Z,14.80
2022-10-18T10:26:31.972Z,14.80
2022-10-18T10:30:01.506Z,14.90
2022-10-18T10:33:34.971Z,14.80
2022-10-18T10:36:49.394Z,14.60
2022-10-18T10:40:18.866Z,14.50
2022-10-18T10:43:39.728Z,14.10
2022-10-18T10:46:50.727Z,14.00
2022-10-18T10:50:00.633Z,14.00
2022-10-18T10:53:40.082Z,14.10
2022-10-18T10:56:57.894Z,14.00
2022-10-18T11:00:06.926Z,14.00
2022-10-18T11:03:28.391Z,14.10
2022-10-18T11:06:53.164Z,14.40
2022-10-18T11:10:05.019Z,14.70
2022-10-18T11:13:25.990Z,14.40
2022-10-18T11:16:39.321Z,14.20
2022-10-18T11:20:03.794Z,14.10
2022-10-18T11:23:15.443Z,14.00
2022-10-18T11:26:45.529Z,14.30
2022-10-18T11:30:12.550Z,14.40
2022-10-18T11:33:49.474Z,14.80
2022-10-18T11:37:27.079Z,15.00
2022-10-18T11:41:03.624Z,15.10
2022-10-18T11:44:23.094Z,15.20
2022-10-18T11:47:42.109Z,15.10
2022-10-18T11:50:57.922Z,14.80
2022-10-18T11:54:25.781Z,14.70
2022-10-18T11:57:52.161Z,14.50
2022-10-18T12:01:07.671Z,14.60
2022-10-18T12:04:20.053Z,14.50
2022-10-18T12:07:32.762Z,14.50
2022-10-18T12:11:03.485Z,14.50
2022-10-18T12:14:24.289Z,14.50
2022-10-18T12:17:51.198Z,14.50
2022-10-18T12:21:00.918Z,14.50
2022-10-18T12:24:13.834Z,14.20
2022-10-18T12:27:41.456Z,14.20
2022-10-18T12:30:58.932Z,14.20
2022-10-18T12:34:20.350Z,14.40
2022-10-18T12:37:51.366Z,14.30
2022-10-18T12:41:01.196Z,14.30
2022-10-18T12:44:21.213Z,14.40
2022-10-18T12:47:32.255Z,14.30
2022-10-18T12:50:43.995Z,14.30
2022-10-18T12:54:10.703Z,14.20
2022-10-18T12:57:24.688Z,14.10
2022-10-18T13:01:03.089Z,14.10
2022-10-18T13:04:38.287Z,14.00
2022-10-18T13:07:46.790Z,14.00
2022-10-18T13:11:30.593Z,14.00
2022-10-18T13:15:07.302Z,13.90
2022-10-18T13:18:39.192Z,13.80
2022-10-18T13:25:35.121Z,13.80
2022-10-18T13:28:55.250Z,13.90
2022-10-18T13:32:08.826Z,13.90
2022-10-18T13:35:47.550Z,13.90
2022-10-18T13:39:06.835Z,14.00
2022-10-18T13:42:31.583Z,14.00
2022-10-18T13:45:56.590Z,13.90
2022-10-18T13:49:26.137Z,13.90
2022-10-18T13:52:52.993Z,13.90
2022-10-18T13:56:25.926Z,14.00
2022-10-18T14:00:00.254Z,14.10
2022-10-18T14:03:58.068Z,14.00
2022-10-18T14:07:08.921Z,14.00
2022-10-18T14:10:43.238Z,13.90
2022-10-18T14:13:59.980Z,14.00
2022-10-18T14:17:18.125Z,14.00
2022-10-18T14:20:30.154Z,14.00
2022-10-18T14:23:43.349Z,13.90
2022-10-18T14:27:13.954Z,14.00
2022-10-18T14:30:24.445Z,14.00
2022-10-18T14:33:35.682Z,13.90
2022-10-18T14:36:47.402Z,13.80
2022-10-18T14:39:56.269Z,13.70
2022-10-18T14:43:07.618Z,13.50
2022-10-18T14:46:24.188Z,13.40
2022-10-18T14:49:32.680Z,13.20
2022-10-18T14:52:41.176Z,13.10
2022-10-18T14:55:57.389Z,13.10
2022-10-18T14:59:18.735Z,13.00
2022-10-18T15:02:30.594Z,12.90
2022-10-18T15:05:39.354Z,12.80
2022-10-18T15:08:50.519Z,12.70
2022-10-18T15:12:00.782Z,12.70
2022-10-18T15:15:18.289Z,12.70
2022-10-18T15:21:37.920Z,12.60
2022-10-18T15:24:46.414Z,12.50
2022-10-18T15:27:56.781Z,12.50
2022-10-18T15:31:06.863Z,12.40
2022-10-18T15:34:21.155Z,12.30
2022-10-18T15:37:34.695Z,12.20
2022-10-18T15:40:44.303Z,12.20
2022-10-18T15:43:53.330Z,12.00
2022-10-18T15:47:21.077Z,12.00
2022-10-18T15:50:49.372Z,11.90
2022-10-18T15:53:57.827Z,11.80
2022-10-18T15:57:09.184Z,11.70
2022-10-18T16:00:20.956Z,11.70
2022-10-18T16:03:29.977Z,11.60
2022-10-18T16:06:40.071Z,11.50
2022-10-18T16:09:48.475Z,11.40
2022-10-18T16:12:56.999Z,11.50
2022-10-18T16:16:05.797Z,11.50
2022-10-18T16:19:15.879Z,11.50
2022-10-18T16:22:25.834Z,11.40
2022-10-18T16:25:34.261Z,11.30
2022-10-18T16:28:43.139Z,11.30
2022-10-18T16:31:53.649Z,11.20
2022-10-18T16:35:02.112Z,11.10
2022-10-18T16:38:23.937Z,11.10
2022-10-18T16:41:32.344Z,11.00
2022-10-18T16:44:40.749Z,10.90
2022-10-18T16:47:49.228Z,10.80
2022-10-18T16:50:58.521Z,10.80
2022-10-18T16:54:08.361Z,10.70
2022-10-18T16:57:16.781Z,10.70
2022-10-18T17:00:25.343Z,10.60
2022-10-18T17:03:33.801Z,10.60
2022-10-18T17:06:42.354Z,10.50
2022-10-18T17:09:52.267Z,10.50
2022-10-18T17:13:00.699Z,10.50
2022-10-18T17:16:23.858Z,10.50
2022-10-18T17:19:32.338Z,10.40
2022-10-18T17:22:47.455Z,10.30
2022-10-18T17:26:07.178Z,10.30
2022-10-18T17:29:26.171Z,10.20
2022-10-18T17:32:37.768Z,10.20
2022-10-18T17:35:49.584Z,10.20
2022-10-18T17:38:58.892Z,10.30
2022-10-18T17:42:12.221Z,10.30
2022-10-18T17:45:21.377Z,10.30
2022-10-18T17:48:29.842Z,10.30
2022-10-18T17:51:38.388Z,10.20
2022-10-18T17:54:48.030Z,10.20
2022-10-18T17:57:57.982Z,10.30
2022-10-18T18:01:12.005Z,10.40
2022-10-18T18:04:20.468Z,10.40
2022-10-18T18:07:29.497Z,10.40
2022-10-18T18:10:38.564Z,10.40
2022-10-18T18:13:49.107Z,10.40
2022-10-18T18:16:57.927Z,10.40
2022-10-18T18:20:08.100Z,10.40
2022-10-18T18:23:16.499Z,10.40
2022-10-18T18:26:25.391Z,10.40
2022-10-18T18:29:39.672Z,10.40
2022-10-18T18:32:51.801Z,10.40
2022-10-18T18:36:03.316Z,10.50
2022-10-18T18:39:24.260Z,10.50
2022-10-18T18:42:33.962Z,10.50
2022-10-18T18:45:57.586Z,10.50
2022-10-18T18:49:10.774Z,10.40
2022-10-18T18:52:21.548Z,10.40
2022-10-18T18:55:40.025Z,10.40
2022-10-18T18:58:52.303Z,10.40
2022-10-18T19:02:12.818Z,10.40
2022-10-18T19:08:39.917Z,10.40
2022-10-18T19:11:49.758Z,10.40
2022-10-18T19:15:00.954Z,10.40
2022-10-18T19:18:13.266Z,10.40
2022-10-18T19:21:31.742Z,10.40
2022-10-18T19:24:40.766Z,10.40
2022-10-18T19:27:49.170Z,10.40
2022-10-18T19:31:04.647Z,10.30
2022-10-18T19:34:17.499Z,10.30
2022-10-18T19:37:26.391Z,10.30
2022-10-18T19:40:34.861Z,10.30
2022-10-18T19:43:43.322Z,10.20
2022-10-18T19:46:52.145Z,10.10
2022-10-18T19:50:02.026Z,10.00
2022-10-18T19:53:10.504Z,9.90
2022-10-18T19:56:20.891Z,9.80
2022-10-18T19:59:29.488Z,9.80
2022-10-18T20:02:37.998Z,9.70
2022-10-18T20:05:47.915Z,9.70
2022-10-18T20:08:57.016Z,9.60
2022-10-18T20:12:05.704Z,9.50
2022-10-18T20:15:14.247Z,9.40
2022-10-18T20:18:22.646Z,9.20
2022-10-18T20:21:35.668Z,9.20
2022-10-18T20:24:44.204Z,9.10
2022-10-18T20:27:52.768Z,9.10
2022-10-18T20:31:02.921Z,9.00
2022-10-18T20:34:13.211Z,9.00
2022-10-18T20:37:23.009Z,8.90
2022-10-18T20:40:31.480Z,8.90
2022-10-18T20:43:40.659Z,8.80
2022-10-18T20:46:49.100Z,8.80
2022-10-18T20:49:57.565Z,8.60
2022-10-18T20:53:07.362Z,8.60
2022-10-18T20:56:17.184Z,8.50
2022-10-18T20:59:25.692Z,8.40
2022-10-18T21:02:34.105Z,8.40
2022-10-18T21:05:42.553Z,8.30
2022-10-18T21:08:56.271Z,8.30
2022-10-18T21:12:04.907Z,8.20
2022-10-18T21:15:13.518Z,8.20
2022-10-18T21:18:25.161Z,8.10
2022-10-18T21:21:33.970Z,8.10
2022-10-18T21:24:45.244Z,8.00
2022-10-18T21:27:53.695Z,8.00
2022-10-18T21:31:13.861Z,7.90
2022-10-18T21:34:22.442Z,7.80
2022-10-18T21:37:31.271Z,7.80
2022-10-18T21:40:44.655Z,7.80
2022-10-18T21:43:54.884Z,7.70
2022-10-18T21:47:03.333Z,7.60
2022-10-18T21:50:11.926Z,7.60
2022-10-18T21:53:20.664Z,7.60
2022-10-18T21:56:32.116Z,7.70
2022-10-18T21:59:40.592Z,7.70
2022-10-18T22:02:49.038Z,7.60
2022-10-18T22:06:02.411Z,7.60
2022-10-18T22:09:10.851Z,7.40
2022-10-18T22:12:20.690Z,7.30
2022-10-18T22:15:29.197Z,7.20
2022-10-18T22:18:37.656Z,7.10
2022-10-18T22:21:46.098Z,7.10
2022-10-18T22:24:54.499Z,7.00
2022-10-18T22:28:04.480Z,7.00
2022-10-18T22:31:18.054Z,6.90
2022-10-18T22:34:27.973Z,6.90
2022-10-18T22:37:36.657Z,6.80
2022-10-18T22:40:45.394Z,6.80
2022-10-18T22:43:57.315Z,6.80
2022-10-18T22:47:08.173Z,6.70
2022-10-18T22:50:16.660Z,6.60
2022-10-18T22:53:25.332Z,6.50
2022-10-18T22:56:33.778Z,6.50
2022-10-18T22:59:43.607Z,6.50
2022-10-18T23:02:51.994Z,6.40
2022-10-18T23:06:00.970Z,6.30
2022-10-18T23:09:11.428Z,6.30
2022-10-18T23:12:19.891Z,6.30
2022-10-18T23:15:29.797Z,6.30
2022-10-18T23:21:48.183Z,6.20
2022-10-18T23:24:56.655Z,6.20
2022-10-18T23:28:05.119Z,6.20
2022-10-18T23:31:18.039Z,6.10
2022-10-18T23:34:26.903Z,6.20
2022-10-18T23:37:35.785Z,6.20
2022-10-18T23:40:44.509Z,6.20
2022-10-18T23:43:53.250Z,6.10
2022-10-18T23:47:03.144Z,6.10
2022-10-18T23:50:11.685Z,6.00
2022-10-18T23:53:20.686Z,6.00
2022-10-18T23:56:29.232Z,6.00
2022-10-18T23:59:37.720Z,5.90
